createdAt,value
2019-05-11T00:00:10.928Z,11.15
2019-05-11T00:02:39.560Z,11.35
2019-05-11T00:05:08.284Z,11.03
2019-05-11T00:07:36.838Z,10.93
2019-05-11T00:10:07.120Z,10.82
2019-05-11T00:12:35.749Z,10.84
2019-05-11T00:15:05.663Z,10.93
2019-05-11T00:17:34.082Z,10.90
2019-05-11T00:20:03.073Z,11.18
2019-05-11T00:22:31.499Z,11.06
2019-05-11T00:24:59.889Z,10.98
2019-05-11T00:27:28.536Z,10.93
2019-05-11T00:29:57.144Z,10.98
2019-05-11T00:32:25.736Z,10.92
2019-05-11T00:34:54.541Z,10.95
2019-05-11T00:37:22.905Z,11.15
2019-05-11T00:39:51.404Z,11.29
2019-05-11T00:42:20.097Z,11.03
2019-05-11T00:44:48.493Z,10.86
2019-05-11T00:47:16.969Z,11.01
2019-05-11T00:49:45.895Z,11.03
2019-05-11T00:52:14.530Z,11.20
2019-05-11T00:54:43.251Z,11.03
2019-05-11T00:57:11.645Z,11.00
2019-05-11T00:59:40.075Z,10.89
2019-05-11T01:02:08.434Z,11.05
2019-05-11T01:04:36.839Z,11.18
2019-05-11T01:07:05.263Z,10.99
2019-05-11T01:09:33.626Z,10.91
2019-05-11T01:12:01.985Z,10.90
2019-05-11T01:14:30.423Z,10.88
2019-05-11T01:16:58.785Z,10.90
2019-05-11T01:19:27.225Z,10.90
2019-05-11T01:21:55.645Z,10.92
2019-05-11T01:24:24.388Z,11.05
2019-05-11T01:26:52.730Z,11.03
2019-05-11T01:29:21.432Z,11.07
2019-05-11T01:31:49.787Z,11.00
2019-05-11T01:34:18.497Z,11.10
2019-05-11T01:36:46.896Z,11.03
2019-05-11T01:39:15.442Z,11.41
2019-05-11T01:41:43.773Z,11.15
2019-05-11T01:44:12.507Z,11.10
2019-05-11T01:46:40.887Z,11.01
2019-05-11T01:49:09.224Z,11.09
2019-05-11T01:51:37.562Z,11.03
2019-05-11T01:54:05.932Z,11.51
2019-05-11T01:56:34.294Z,11.05
2019-05-11T01:59:02.611Z,11.03
2019-05-11T02:01:31.284Z,11.54
2019-05-11T02:03:59.570Z,10.93
2019-05-11T02:06:28.006Z,10.99
2019-05-11T02:08:56.299Z,11.06
2019-05-11T02:11:24.987Z,10.72
2019-05-11T02:13:53.351Z,10.63
2019-05-11T02:16:21.656Z,10.68
2019-05-11T02:18:50.246Z,10.57
2019-05-11T02:21:18.615Z,10.88
2019-05-11T02:23:46.928Z,10.76
2019-05-11T02:26:15.236Z,10.82
2019-05-11T02:28:43.537Z,10.91
2019-05-11T02:31:11.851Z,10.80
2019-05-11T02:33:40.233Z,10.77
2019-05-11T02:36:08.555Z,10.77
2019-05-11T02:38:36.863Z,11.65
2019-05-11T02:41:05.264Z,11.29
2019-05-11T02:43:33.588Z,11.76
2019-05-11T02:46:01.878Z,10.98
2019-05-11T02:48:30.177Z,11.80
2019-05-11T02:50:59.535Z,11.80
2019-05-11T02:53:29.739Z,10.84
2019-05-11T02:55:58.535Z,11.00
2019-05-11T02:58:26.903Z,11.57
2019-05-11T03:00:55.200Z,11.06
2019-05-11T03:03:23.518Z,11.16
2019-05-11T03:05:51.887Z,11.17
2019-05-11T03:08:20.211Z,10.89
2019-05-11T03:10:48.511Z,10.93
2019-05-11T03:13:17.207Z,10.91
2019-05-11T03:15:45.662Z,11.01
2019-05-11T03:18:13.987Z,11.27
2019-05-11T03:20:42.424Z,11.24
2019-05-11T03:23:10.771Z,11.28
2019-05-11T03:25:39.074Z,11.19
2019-05-11T03:28:07.368Z,11.15
2019-05-11T03:30:36.072Z,11.15
2019-05-11T03:33:04.392Z,11.16
2019-05-11T03:35:32.705Z,11.29
2019-05-11T03:38:01.089Z,11.18
2019-05-11T03:40:29.393Z,10.98
2019-05-11T03:42:58.092Z,10.97
2019-05-11T03:45:26.388Z,11.09
2019-05-11T03:47:54.853Z,11.04
2019-05-11T03:50:23.191Z,10.96
2019-05-11T03:52:51.490Z,10.91
2019-05-11T03:55:19.791Z,10.88
2019-05-11T03:57:48.172Z,10.90
2019-05-11T04:00:17.521Z,10.91
2019-05-11T04:02:46.258Z,10.57
2019-05-11T04:05:14.667Z,10.47
2019-05-11T04:07:42.978Z,10.44
2019-05-11T04:10:11.543Z,10.68
2019-05-11T04:12:39.903Z,10.67
2019-05-11T04:15:08.401Z,10.40
2019-05-11T04:17:37.161Z,10.43
2019-05-11T04:20:06.519Z,10.74
2019-05-11T04:22:34.867Z,10.81
2019-05-11T04:25:03.560Z,10.85
2019-05-11T04:27:31.853Z,10.95
2019-05-11T04:30:00.217Z,10.95
2019-05-11T04:32:28.526Z,10.97
2019-05-11T04:34:56.890Z,11.01
2019-05-11T04:37:25.219Z,11.03
2019-05-11T04:39:53.524Z,11.20
2019-05-11T04:42:21.837Z,11.48
2019-05-11T04:44:52.466Z,11.73
2019-05-11T04:47:20.215Z,11.87
2019-05-11T04:49:48.518Z,11.67
2019-05-11T04:52:16.823Z,11.80
2019-05-11T04:54:45.140Z,12.06
2019-05-11T04:57:13.430Z,12.00
2019-05-11T04:59:42.119Z,11.87
2019-05-11T05:02:10.432Z,11.93
2019-05-11T05:04:38.781Z,12.00
2019-05-11T05:07:10.756Z,12.24
2019-05-11T05:09:42.518Z,12.26
2019-05-11T05:12:08.413Z,12.46
2019-05-11T05:14:37.196Z,12.08
2019-05-11T05:17:05.494Z,12.21
2019-05-11T05:19:34.073Z,12.20
2019-05-11T05:22:02.768Z,12.21
2019-05-11T05:24:31.358Z,12.28
2019-05-11T05:26:59.677Z,12.62
2019-05-11T05:29:28.086Z,12.72
2019-05-11T05:31:56.368Z,13.00
2019-05-11T05:34:24.664Z,13.83
2019-05-11T05:36:53.365Z,14.07
2019-05-11T05:39:21.674Z,14.24
2019-05-11T05:41:56.979Z,13.20
2019-05-11T05:44:20.089Z,13.45
2019-05-11T05:46:48.434Z,15.56
2019-05-11T05:49:16.754Z,15.29
2019-05-11T05:51:45.717Z,16.80
2019-05-11T05:54:15.333Z,16.14
2019-05-11T05:56:43.631Z,16.30
2019-05-11T05:59:11.926Z,16.29
2019-05-11T06:01:40.332Z,15.99
2019-05-11T06:04:08.949Z,14.49
2019-05-11T06:06:37.277Z,14.25
2019-05-11T06:09:07.155Z,13.58
2019-05-11T06:11:35.737Z,13.68
2019-05-11T06:14:04.107Z,13.75
2019-05-11T06:16:32.435Z,14.14
2019-05-11T06:19:00.735Z,14.17
2019-05-11T06:21:29.169Z,14.58
2019-05-11T06:23:57.503Z,14.11
2019-05-11T06:26:26.319Z,14.57
2019-05-11T06:28:54.640Z,14.78
2019-05-11T06:31:22.998Z,14.95
2019-05-11T06:33:51.320Z,15.43
2019-05-11T06:36:19.694Z,14.92
2019-05-11T06:38:48.021Z,15.41
2019-05-11T06:41:16.401Z,15.84
2019-05-11T06:43:59.526Z,16.26
2019-05-11T06:46:14.807Z,16.18
2019-05-11T06:48:43.102Z,16.04
2019-05-11T06:51:11.460Z,16.28
2019-05-11T06:53:39.754Z,16.95
2019-05-11T06:56:08.155Z,17.06
2019-05-11T06:58:36.457Z,16.74
2019-05-11T07:01:04.761Z,16.96
2019-05-11T07:03:33.085Z,16.46
2019-05-11T07:06:01.388Z,17.39
2019-05-11T07:08:30.000Z,17.05
2019-05-11T07:10:58.310Z,17.11
2019-05-11T07:13:26.693Z,16.97
2019-05-11T07:15:54.995Z,17.75
2019-05-11T07:18:23.318Z,17.75
2019-05-11T07:20:51.617Z,17.43
2019-05-11T07:23:19.933Z,17.48
2019-05-11T07:25:48.246Z,17.09
2019-05-11T07:28:16.559Z,16.87
2019-05-11T07:30:44.923Z,16.36
2019-05-11T07:33:13.235Z,16.38
2019-05-11T07:35:41.630Z,16.45
2019-05-11T07:38:09.923Z,16.96
2019-05-11T07:40:38.597Z,17.03
2019-05-11T07:43:09.648Z,16.84
2019-05-11T07:45:38.670Z,16.59
2019-05-11T07:48:08.052Z,16.79
2019-05-11T07:50:38.754Z,16.64
2019-05-11T07:53:08.161Z,16.39
2019-05-11T07:55:38.506Z,16.61
2019-05-11T07:58:07.990Z,16.73
2019-05-11T08:00:39.755Z,16.67
2019-05-11T08:03:09.018Z,16.71
2019-05-11T08:05:38.563Z,16.73
2019-05-11T08:08:08.671Z,17.30
2019-05-11T08:10:39.019Z,17.14
2019-05-11T08:13:09.130Z,17.12
2019-05-11T08:15:38.362Z,17.52
2019-05-11T08:18:08.537Z,17.66
2019-05-11T08:20:38.535Z,17.10
2019-05-11T08:23:09.074Z,16.76
2019-05-11T08:25:37.990Z,16.48
2019-05-11T08:28:11.594Z,16.43
2019-05-11T08:30:38.147Z,16.64
2019-05-11T08:33:08.663Z,16.40
2019-05-11T08:35:38.998Z,16.35
2019-05-11T08:38:08.837Z,16.61
2019-05-11T08:40:37.974Z,16.05
2019-05-11T08:43:08.754Z,15.98
2019-05-11T08:45:39.376Z,15.69
2019-05-11T08:48:08.104Z,16.61
2019-05-11T08:50:38.237Z,15.98
2019-05-11T08:53:08.602Z,16.34
2019-05-11T08:55:38.180Z,16.71
2019-05-11T08:58:07.912Z,17.17
2019-05-11T09:00:38.765Z,17.54
2019-05-11T09:03:08.515Z,17.41
2019-05-11T09:05:38.459Z,17.88
2019-05-11T09:08:08.190Z,17.65
2019-05-11T09:10:39.535Z,17.80
2019-05-11T09:13:08.045Z,17.85
2019-05-11T09:15:40.243Z,17.50
2019-05-11T09:18:08.420Z,18.27
2019-05-11T09:20:37.832Z,17.65
2019-05-11T09:23:08.178Z,18.15
2019-05-11T09:25:38.486Z,18.56
2019-05-11T09:28:08.565Z,17.97
2019-05-11T09:30:37.781Z,18.40
2019-05-11T09:33:08.568Z,18.26
2019-05-11T09:35:47.595Z,18.03
2019-05-11T09:38:08.113Z,17.86
2019-05-11T09:40:38.592Z,18.35
2019-05-11T09:43:08.541Z,18.49
2019-05-11T09:45:47.479Z,19.02
2019-05-11T09:48:08.579Z,19.29
2019-05-11T09:50:38.767Z,19.66
2019-05-11T09:53:08.485Z,19.59
2019-05-11T09:55:38.892Z,19.92
2019-05-11T09:58:08.535Z,21.02
2019-05-11T10:00:38.875Z,19.52
2019-05-11T10:03:08.244Z,19.42
2019-05-11T10:05:38.236Z,20.80
2019-05-11T10:08:07.864Z,20.56
2019-05-11T10:10:38.350Z,20.08
2019-05-11T10:13:08.118Z,19.08
2019-05-11T10:15:38.550Z,18.69
2019-05-11T10:18:08.177Z,18.98
2019-05-11T10:20:39.028Z,18.72
2019-05-11T10:23:08.356Z,18.49
2019-05-11T10:25:39.117Z,18.23
2019-05-11T10:28:08.680Z,18.29
2019-05-11T10:30:38.698Z,18.28
2019-05-11T10:33:08.257Z,18.27
2019-05-11T10:35:37.810Z,17.94
2019-05-11T10:38:08.996Z,18.23
2019-05-11T10:40:38.711Z,18.28
2019-05-11T10:43:07.984Z,18.40
2019-05-11T10:45:37.934Z,18.60
2019-05-11T10:48:08.827Z,18.69
2019-05-11T10:50:38.053Z,18.92
2019-05-11T10:53:08.021Z,18.89
2019-05-11T10:55:38.723Z,18.96
2019-05-11T10:58:08.686Z,19.31
2019-05-11T11:00:38.894Z,18.70
2019-05-11T11:03:08.440Z,19.09
2019-05-11T11:05:38.525Z,19.30
2019-05-11T11:08:08.262Z,19.31
2019-05-11T11:10:37.924Z,19.33
2019-05-11T11:13:08.304Z,19.49
2019-05-11T11:15:38.098Z,19.80
2019-05-11T11:18:08.602Z,19.35
2019-05-11T11:20:38.434Z,19.36
2019-05-11T11:23:08.839Z,19.66
2019-05-11T11:25:37.650Z,19.83
2019-05-11T11:28:08.284Z,20.20
2019-05-11T11:30:37.874Z,20.56
2019-05-11T11:33:07.975Z,21.22
2019-05-11T11:35:38.515Z,21.37
2019-05-11T11:38:08.678Z,22.70
2019-05-11T11:40:38.694Z,22.57
2019-05-11T11:43:08.632Z,22.27
2019-05-11T11:48:08.666Z,22.03
2019-05-11T11:50:37.791Z,22.23
2019-05-11T11:53:08.424Z,21.91
2019-05-11T11:55:38.848Z,22.13
2019-05-11T11:58:08.269Z,22.08
2019-05-11T12:00:39.182Z,22.67
2019-05-11T12:03:08.142Z,21.28
2019-05-11T12:05:38.648Z,22.63
2019-05-11T12:08:08.331Z,23.31
2019-05-11T12:10:37.947Z,23.42
2019-05-11T12:13:08.649Z,23.77
2019-05-11T12:15:38.788Z,23.85
2019-05-11T12:18:08.278Z,23.94
2019-05-11T12:20:38.993Z,24.10
2019-05-11T12:23:08.795Z,25.61
2019-05-11T12:25:40.380Z,25.80
2019-05-11T12:28:08.065Z,23.80
2019-05-11T12:30:37.656Z,24.09
2019-05-11T12:33:08.247Z,25.03
2019-05-11T12:35:37.753Z,22.32
2019-05-11T12:38:07.808Z,22.99
2019-05-11T12:40:38.695Z,23.64
2019-05-11T12:43:08.190Z,23.67
2019-05-11T12:45:37.633Z,23.54
2019-05-11T12:48:08.837Z,23.65
2019-05-11T12:50:37.927Z,23.67
2019-05-11T12:53:08.042Z,23.62
2019-05-11T12:55:40.882Z,24.81
2019-05-11T12:58:09.314Z,24.92
2019-05-11T13:00:39.205Z,24.83
2019-05-11T13:03:08.238Z,24.16
2019-05-11T13:05:37.814Z,21.93
2019-05-11T13:08:07.998Z,22.70
2019-05-11T13:10:37.637Z,21.84
2019-05-11T13:13:08.689Z,22.03
2019-05-11T13:15:38.735Z,22.38
2019-05-11T13:18:08.494Z,23.12
2019-05-11T13:20:37.792Z,23.05
2019-05-11T13:23:08.042Z,22.82
2019-05-11T13:25:38.606Z,23.14
2019-05-11T13:28:08.523Z,23.01
2019-05-11T13:30:38.201Z,22.58
2019-05-11T13:33:08.567Z,22.69
2019-05-11T13:35:37.665Z,22.10
2019-05-11T13:38:08.510Z,21.71
2019-05-11T13:40:38.171Z,21.66
2019-05-11T13:43:08.208Z,21.58
2019-05-11T13:45:38.524Z,21.66
2019-05-11T13:48:08.458Z,21.46
2019-05-11T13:50:38.698Z,22.06
2019-05-11T13:53:07.722Z,22.19
2019-05-11T13:55:36.181Z,21.28
2019-05-11T13:58:04.472Z,21.33
2019-05-11T14:00:32.857Z,21.12
2019-05-11T14:03:02.802Z,21.11
2019-05-11T14:05:31.179Z,20.88
2019-05-11T14:14:08.593Z,21.16
2019-05-11T14:16:37.860Z,20.81
2019-05-11T14:19:08.637Z,20.33
2019-05-11T14:21:38.464Z,20.42
2019-05-11T14:24:07.754Z,19.99
2019-05-11T14:26:38.403Z,19.83
2019-05-11T14:29:08.466Z,19.70
2019-05-11T14:31:38.674Z,19.55
2019-05-11T14:34:08.806Z,18.04
2019-05-11T14:36:38.735Z,14.91
2019-05-11T14:39:08.347Z,13.63
2019-05-11T14:41:38.003Z,14.56
2019-05-11T14:44:08.904Z,13.52
2019-05-11T14:46:38.423Z,14.05
2019-05-11T14:49:07.881Z,14.22
2019-05-11T14:51:38.831Z,13.86
2019-05-11T14:54:08.249Z,14.09
2019-05-11T14:56:37.981Z,13.68
2019-05-11T14:59:09.064Z,13.61
2019-05-11T15:01:38.126Z,13.30
2019-05-11T15:04:09.138Z,13.15
2019-05-11T15:06:38.631Z,13.21
2019-05-11T15:09:08.249Z,13.14
2019-05-11T15:11:38.639Z,13.62
2019-05-11T15:14:08.113Z,13.57
2019-05-11T15:16:38.414Z,13.61
2019-05-11T15:19:08.071Z,12.98
2019-05-11T15:21:38.509Z,12.69
2019-05-11T15:24:09.016Z,12.65
2019-05-11T15:26:38.172Z,12.68
2019-05-11T15:29:08.100Z,12.68
2019-05-11T15:31:38.162Z,13.01
2019-05-11T15:34:08.635Z,12.91
2019-05-11T15:36:38.703Z,13.06
2019-05-11T15:39:07.927Z,13.14
2019-05-11T15:41:38.610Z,13.05
2019-05-11T15:44:11.352Z,13.11
2019-05-11T15:46:38.737Z,13.11
2019-05-11T15:49:08.823Z,13.29
2019-05-11T15:51:40.767Z,13.24
2019-05-11T15:54:07.918Z,13.19
2019-05-11T15:56:38.468Z,12.96
2019-05-11T15:59:08.722Z,12.72
2019-05-11T16:01:40.760Z,12.96
2019-05-11T16:04:08.889Z,12.95
2019-05-11T16:06:36.762Z,12.78
2019-05-11T16:09:08.358Z,12.80
2019-05-11T16:11:38.887Z,12.79
2019-05-11T16:14:08.543Z,12.69
2019-05-11T16:16:39.059Z,12.68
2019-05-11T16:19:13.938Z,12.49
2019-05-11T16:21:38.334Z,12.77
2019-05-11T16:24:07.982Z,12.38
2019-05-11T16:26:36.685Z,12.49
2019-05-11T16:29:05.091Z,22.26
2019-05-11T16:31:33.620Z,27.47
2019-05-11T16:34:02.769Z,28.02
2019-05-11T16:36:31.460Z,24.39
2019-05-11T16:38:59.929Z,22.77
2019-05-11T16:41:29.073Z,12.40
2019-05-11T16:43:58.701Z,12.08
2019-05-11T16:46:28.419Z,12.06
2019-05-11T16:48:57.882Z,12.10
2019-05-11T16:51:28.478Z,12.08
2019-05-11T16:53:58.618Z,11.99
2019-05-11T16:56:26.590Z,12.43
2019-05-11T16:58:55.115Z,12.33
2019-05-11T17:01:23.584Z,12.33
2019-05-11T17:03:51.907Z,12.51
2019-05-11T17:06:20.207Z,12.45
2019-05-11T17:08:48.806Z,12.35
2019-05-11T17:11:18.647Z,12.37
2019-05-11T17:13:48.380Z,12.48
2019-05-11T17:16:17.906Z,12.45
2019-05-11T17:18:48.315Z,12.19
2019-05-11T17:21:18.363Z,12.30
2019-05-11T17:23:48.741Z,12.36
2019-05-11T17:26:19.003Z,12.07
2019-05-11T17:28:48.972Z,12.23
2019-05-11T17:31:18.787Z,12.42
2019-05-11T17:33:47.770Z,12.34
2019-05-11T17:36:18.466Z,12.31
2019-05-11T17:38:47.937Z,11.90
2019-05-11T17:41:16.397Z,12.06
2019-05-11T17:43:44.775Z,12.09
2019-05-11T17:46:13.440Z,12.02
2019-05-11T17:48:42.066Z,11.68
2019-05-11T17:51:21.339Z,11.43
2019-05-11T17:53:40.478Z,11.53
2019-05-11T17:56:08.793Z,11.38
2019-05-11T17:58:37.904Z,11.61
2019-05-11T18:01:09.211Z,11.46
2019-05-11T18:03:38.479Z,12.55
2019-05-11T18:06:08.500Z,12.18
2019-05-11T18:08:37.324Z,11.01
2019-05-11T18:11:08.187Z,11.70
2019-05-11T18:13:38.498Z,11.98
2019-05-11T18:16:08.483Z,11.41
2019-05-11T18:18:37.810Z,11.41
2019-05-11T18:21:08.494Z,10.85
2019-05-11T18:23:38.570Z,10.76
2019-05-11T18:26:08.619Z,10.65
2019-05-11T18:28:37.855Z,10.75
2019-05-11T18:31:06.509Z,10.75
2019-05-11T18:33:35.154Z,10.82
2019-05-11T18:36:03.471Z,10.80
2019-05-11T18:38:31.770Z,10.96
2019-05-11T18:41:00.088Z,10.94
2019-05-11T18:43:28.386Z,10.78
2019-05-11T18:45:58.120Z,10.81
2019-05-11T18:48:28.995Z,10.69
2019-05-11T18:50:58.906Z,10.93
2019-05-11T18:53:28.780Z,10.82
2019-05-11T18:55:59.047Z,10.77
2019-05-11T18:58:27.841Z,10.78
2019-05-11T19:00:56.290Z,11.05
2019-05-11T19:03:24.616Z,10.89
2019-05-11T19:05:53.060Z,10.85
2019-05-11T19:08:21.817Z,10.98
2019-05-11T19:10:50.404Z,11.00
2019-05-11T19:13:18.729Z,11.06
2019-05-11T19:15:48.749Z,11.08
2019-05-11T19:18:17.134Z,11.21
2019-05-11T19:20:49.113Z,11.12
2019-05-11T19:23:15.703Z,10.91
2019-05-11T19:25:44.203Z,10.96
2019-05-11T19:28:12.508Z,11.06
2019-05-11T19:30:40.810Z,11.22
2019-05-11T19:33:11.136Z,11.62
2019-05-11T19:35:39.350Z,11.10
2019-05-11T19:38:08.676Z,11.07
2019-05-11T19:40:38.604Z,11.08
2019-05-11T19:43:08.118Z,11.22
2019-05-11T19:45:38.467Z,11.08
2019-05-11T19:48:08.411Z,11.03
2019-05-11T19:50:40.305Z,10.98
2019-05-11T19:53:08.438Z,10.94
2019-05-11T19:55:36.944Z,11.12
2019-05-11T19:58:05.314Z,11.16
2019-05-11T20:00:34.321Z,10.97
2019-05-11T20:03:05.370Z,11.33
2019-05-11T20:05:33.699Z,11.13
2019-05-11T20:08:01.997Z,10.95
2019-05-11T20:10:30.321Z,10.95
2019-05-11T20:12:59.048Z,10.66
2019-05-11T20:15:27.794Z,10.96
2019-05-11T20:17:58.463Z,10.74
2019-05-11T20:20:28.249Z,11.30
2019-05-11T20:22:58.371Z,11.10
2019-05-11T20:25:28.778Z,11.21
2019-05-11T20:27:58.469Z,11.16
2019-05-11T20:30:27.185Z,11.22
2019-05-11T20:32:55.983Z,11.29
2019-05-11T20:35:24.280Z,11.61
2019-05-11T20:37:52.602Z,11.34
2019-05-11T20:40:20.908Z,11.38
2019-05-11T20:42:49.356Z,11.39
2019-05-11T20:45:18.601Z,11.22
2019-05-11T20:47:48.688Z,11.41
2019-05-11T20:50:18.413Z,11.65
2019-05-11T20:52:48.679Z,11.83
2019-05-11T20:55:18.149Z,11.71
2019-05-11T20:57:48.599Z,11.60
2019-05-11T21:00:18.771Z,11.60
2019-05-11T21:02:48.658Z,11.70
2019-05-11T21:05:18.158Z,11.73
2019-05-11T21:07:46.800Z,12.04
2019-05-11T21:10:15.380Z,11.88
2019-05-11T21:12:43.747Z,11.50
2019-05-11T21:15:12.694Z,11.67
2019-05-11T21:17:41.011Z,11.67
2019-05-11T21:20:10.505Z,11.65
2019-05-11T21:22:40.632Z,11.68
2019-05-11T21:25:09.538Z,11.45
2019-05-11T21:27:38.790Z,12.02
2019-05-11T21:30:09.690Z,11.76
2019-05-11T21:32:40.179Z,11.81
2019-05-11T21:35:09.914Z,11.48
2019-05-11T21:37:39.045Z,11.38
2019-05-11T21:40:08.947Z,11.37
2019-05-11T21:42:38.905Z,11.42
2019-05-11T21:45:09.681Z,11.46
2019-05-11T21:47:39.118Z,11.92
2019-05-11T21:50:09.769Z,14.37
2019-05-11T21:52:38.916Z,11.44
2019-05-11T21:55:09.662Z,11.43
2019-05-11T21:57:38.770Z,11.47
2019-05-11T22:00:09.266Z,12.50
2019-05-11T22:02:38.589Z,11.23
2019-05-11T22:05:08.296Z,11.44
2019-05-11T22:07:38.798Z,11.14
2019-05-11T22:10:08.895Z,10.98
2019-05-11T22:12:38.699Z,11.00
2019-05-11T22:15:09.709Z,10.98
2019-05-11T22:17:39.841Z,10.83
2019-05-11T22:20:08.759Z,11.03
2019-05-11T22:22:38.965Z,10.85
2019-05-11T22:25:08.067Z,10.89
2019-05-11T22:27:38.615Z,10.90
2019-05-11T22:30:08.517Z,10.93
2019-05-11T22:32:38.306Z,10.84
2019-05-11T22:35:08.546Z,10.97
2019-05-11T22:37:38.732Z,10.91
2019-05-11T22:40:08.396Z,10.93
2019-05-11T22:42:37.766Z,10.84
2019-05-11T22:45:09.672Z,10.88
2019-05-11T22:47:39.329Z,11.27
2019-05-11T22:50:10.939Z,11.32
2019-05-11T22:52:40.673Z,11.25
2019-05-11T22:55:11.874Z,11.02
2019-05-11T22:57:39.660Z,11.24
2019-05-11T23:00:10.498Z,11.29
2019-05-11T23:02:38.798Z,11.21
2019-05-11T23:05:08.485Z,11.22
2019-05-11T23:07:41.118Z,11.08
2019-05-11T23:10:09.276Z,11.14
2019-05-11T23:12:38.360Z,11.26
2019-05-11T23:15:13.235Z,11.29
2019-05-11T23:17:42.071Z,11.36
2019-05-11T23:20:10.830Z,11.40
2019-05-11T23:22:57.000Z,11.31
2019-05-11T23:25:18.719Z,11.27
2019-05-11T23:27:48.529Z,11.26
2019-05-11T23:30:19.625Z,11.46
2019-05-11T23:32:48.648Z,11.22
2019-05-11T23:35:18.828Z,11.18
2019-05-11T23:37:49.597Z,11.28
2019-05-11T23:40:18.455Z,11.80
2019-05-11T23:42:48.922Z,11.90
2019-05-11T23:45:18.857Z,11.63
2019-05-11T23:47:48.682Z,11.74
2019-05-11T23:50:18.957Z,11.96
2019-05-11T23:52:50.173Z,11.91
2019-05-11T23:55:19.067Z,11.91
2019-05-11T23:57:49.016Z,11.69
